Time;durP1;ratioP1;P1;durP2;ratioP2;P2;SDS_P1;SDS_P2;PMS_P1;PMS_P2;Temp;Humidity;BMP_temperature;BMP_pressure;BME280_temperature;BME280_humidity;BME280_pressure;Samples;Min_cycle;Max_cycle;Signal;HPM_P1;HPM_P2
2022/12/04 00:01:12;;;;;;;14.80;5.33;;;;;;;-6.22;100.00;103447.37;1756996;81;20995;-79
2022/12/04 00:03:40;;;;;;;14.10;4.92;;;;;;;-6.30;100.00;103460.87;1687535;83;21922;-80
2022/12/04 00:06:13;;;;;;;15.30;5.03;;;;;;;-6.37;100.00;103451.64;1711663;83;21001;-79
2022/12/04 00:08:40;;;;;;;;;;;;;;;-6.41;100.00;103449.64;1714380;83;21047;-79
2022/12/04 00:11:08;;;;;;;17.00;5.22;;;;;;;-6.44;100.00;103436.69;1711647;83;20437;-80
2022/12/04 00:13:34;;;;;;;15.63;5.30;;;;;;;-6.48;100.00;103435.59;1711373;83;21436;-79
2022/12/04 00:16:02;;;;;;;19.48;4.85;;;;;;;-6.42;100.00;103432.19;1711602;83;21941;-79
2022/12/04 00:18:28;;;;;;;16.15;4.47;;;;;;;-6.49;100.00;103439.15;1711821;83;21579;-79
2022/12/04 00:20:54;;;;;;;13.55;5.03;;;;;;;-6.42;100.00;103439.21;1711799;83;20877;-79
2022/12/04 00:23:20;;;;;;;15.32;5.03;;;;;;;-6.46;100.00;103445.55;1711230;83;21570;-80
2022/12/04 00:25:49;;;;;;;14.45;4.45;;;;;;;-6.57;100.00;103434.28;1711254;83;20868;-80
2022/12/04 00:28:17;;;;;;;13.60;4.50;;;;;;;-6.52;100.00;103437.52;1711309;83;22590;-79
2022/12/04 00:30:44;;;;;;;15.38;4.95;;;;;;;-6.48;100.00;103438.22;1711556;83;21060;-79
2022/12/04 00:33:12;;;;;;;15.95;4.60;;;;;;;-6.57;100.00;103431.66;1711546;83;22196;-79
2022/12/04 00:35:38;;;;;;;13.10;4.47;;;;;;;-6.54;100.00;103438.52;1711631;83;21039;-79
2022/12/04 00:38:04;;;;;;;14.28;5.03;;;;;;;-6.56;100.00;103429.87;1711844;83;20977;-79
2022/12/04 00:40:31;;;;;;;17.50;4.20;;;;;;;-6.61;100.00;103431.44;1711100;83;20983;-79
2022/12/04 00:42:57;;;;;;;12.82;4.70;;;;;;;-6.64;100.00;103436.84;1711470;83;21047;-78
2022/12/04 00:45:22;;;;;;;15.95;4.40;;;;;;;-6.58;100.00;103448.80;1711188;83;21102;-79
2022/12/04 00:47:49;;;;;;;14.73;3.70;;;;;;;-6.66;100.00;103436.05;1712137;83;20932;-79
2022/12/04 00:50:15;;;;;;;14.78;3.87;;;;;;;-6.68;100.00;103431.34;1711795;83;21603;-79
2022/12/04 00:52:41;;;;;;;14.00;4.42;;;;;;;-6.73;100.00;103442.08;1712010;83;21091;-79
2022/12/04 00:55:08;;;;;;;10.30;3.70;;;;;;;-6.78;100.00;103434.89;1711481;83;21661;-79
2022/12/04 00:57:35;;;;;;;16.23;4.60;;;;;;;-6.75;100.00;103439.98;1711695;83;21071;-79
2022/12/04 01:00:01;;;;;;;11.10;4.00;;;;;;;-6.73;100.00;103429.44;1725826;81;20999;-79
2022/12/04 01:02:27;;;;;;;13.18;3.80;;;;;;;-6.78;100.00;103440.13;1756937;80;21109;-79
2022/12/04 01:04:53;;;;;;;13.28;4.33;;;;;;;-6.74;100.00;103439.05;1740044;81;21066;-79
2022/12/04 01:07:19;;;;;;;14.68;4.12;;;;;;;-6.79;100.00;103440.20;1757359;81;20892;-79
2022/12/04 01:09:45;;;;;;;11.15;3.80;;;;;;;-6.82;100.00;103435.98;1757080;81;20996;-79
2022/12/04 01:12:11;;;;;;;14.95;3.98;;;;;;;-6.81;100.00;103434.20;1757109;81;20884;-79
2022/12/04 01:14:37;;;;;;;12.88;4.03;;;;;;;-6.90;100.00;103438.97;1739910;81;20924;-79
2022/12/04 01:17:03;;;;;;;11.57;3.70;;;;;;;-6.91;100.00;103438.59;1757251;81;21082;-79
2022/12/04 01:19:28;;;;;;;19.17;4.33;;;;;;;-6.89;100.00;103433.25;1756934;81;27050;-79
2022/12/04 01:21:54;;;;;;;12.63;3.47;;;;;;;-6.79;100.00;103427.96;1757087;81;27043;-79
2022/12/04 01:24:20;;;;;;;10.60;3.52;;;;;;;-6.94;100.00;103432.63;1756901;81;20920;-79
2022/12/04 01:26:46;;;;;;;11.22;3.67;;;;;;;-6.93;100.00;103443.52;1757172;81;20876;-78
2022/12/04 01:29:12;;;;;;;15.78;3.87;;;;;;;-6.91;100.00;103440.34;1739991;81;21020;-79
2022/12/04 01:31:38;;;;;;;11.22;3.37;;;;;;;-6.93;100.00;103444.83;1757518;81;20942;-79
2022/12/04 01:34:04;;;;;;;11.93;3.98;;;;;;;-6.88;100.00;103440.22;1757013;81;26426;-80
2022/12/04 01:36:30;;;;;;;10.53;3.40;;;;;;;-6.98;100.00;103445.03;1757226;81;20845;-79
2022/12/04 01:38:56;;;;;;;14.63;3.33;;;;;;;-6.95;100.00;103440.11;1756979;81;21740;-79
2022/12/04 01:41:29;;;;;;;10.50;3.25;;;;;;;-6.96;100.00;103443.20;1756991;81;21075;-79
2022/12/04 01:44:12;;;;;;;15.83;3.42;;;;;;;-7.03;100.00;103444.87;1753199;81;20973;-79
2022/12/04 01:46:40;;;;;;;18.80;4.65;;;;;;;-6.99;100.00;103444.66;1743715;81;21040;-79
2022/12/04 01:49:11;;;;;;;12.35;3.40;;;;;;;-7.06;100.00;103448.95;1743657;81;21024;-79
2022/12/04 01:51:41;;;;;;;9.80;3.40;;;;;;;-6.98;100.00;103447.66;1681680;84;21043;-80
2022/12/04 01:54:15;;;;;;;7.92;2.77;;;;;;;-6.96;100.00;103444.98;1704858;84;21496;-80
2022/12/04 01:56:47;;;;;;;11.55;3.62;;;;;;;-7.04;100.00;103456.28;1696554;84;21016;-79
2022/12/04 01:59:16;;;;;;;13.22;3.77;;;;;;;-6.97;100.00;103451.12;1647405;87;21029;-79
2022/12/04 02:02:00;;;;;;;15.18;3.27;;;;;;;-7.05;100.00;103457.22;1647590;87;21011;-79
2022/12/04 02:04:26;;;;;;;12.45;3.20;;;;;;;-7.12;100.00;103460.13;1647336;87;21612;-79
2022/12/04 02:06:52;;;;;;;10.48;3.17;;;;;;;-7.09;100.00;103455.18;1647431;87;21035;-79
2022/12/04 02:09:20;;;;;;;8.53;2.85;;;;;;;-7.07;100.00;103457.74;1647423;87;21011;-79
2022/12/04 02:11:54;;;;;;;12.82;2.60;;;;;;;-7.05;100.00;103448.05;1647102;86;21018;-79
2022/12/04 02:14:50;;;;;;;9.80;3.33;;;;;;;-7.08;100.00;103460.83;1623722;88;21047;-79
2022/12/04 02:17:27;;;;;;;7.75;3.00;;;;;;;-7.07;100.00;103457.27;1622584;88;21043;-78
2022/12/04 02:20:21;;;;;;;9.70;2.55;;;;;;;-7.16;100.00;103457.72;1623695;88;21178;-79
2022/12/04 02:23:32;;;;;;;9.75;2.80;;;;;;;-7.14;100.00;103463.74;1626169;88;21531;-79
2022/12/04 02:26:37;;;;;;;9.83;2.37;;;;;;;-7.15;100.00;103461.55;1625835;88;21059;-79
2022/12/04 02:29:11;;;;;;;8.50;2.55;;;;;;;-7.18;100.00;103457.77;1625811;88;21081;-78
2022/12/04 02:31:50;;;;;;;5.33;2.35;;;;;;;-7.15;100.00;103458.94;1581445;90;21087;-78
2022/12/04 02:34:27;;;;;;;7.35;2.67;;;;;;;-7.22;100.00;103467.18;1578849;89;21113;-80
2022/12/04 02:37:11;;;;;;;8.75;3.02;;;;;;;-7.22;100.00;103459.32;1582868;90;21135;-79
2022/12/04 02:39:45;;;;;;;5.53;2.45;;;;;;;-7.22;100.00;103462.78;1580778;90;21158;-79
2022/12/04 02:42:19;;;;;;;6.72;2.77;;;;;;;-7.33;100.00;103470.29;1609455;88;21099;-79
2022/12/04 02:45:02;;;;;;;5.83;2.33;;;;;;;-7.22;100.00;103466.71;1598129;88;21094;-79
2022/12/04 02:47:29;;;;;;;12.95;2.45;;;;;;;-7.29;100.00;103463.13;1541837;92;21196;-80
2022/12/04 02:50:02;;;;;;;7.78;2.75;;;;;;;-7.26;100.00;103476.08;1549750;92;21026;-81
2022/12/04 02:52:34;;;;;;;8.45;2.77;;;;;;;-7.31;100.00;103487.64;1580194;90;21043;-78
2022/12/04 02:55:05;;;;;;;6.47;2.12;;;;;;;-7.21;100.00;103478.03;1590866;90;21216;-78
2022/12/04 02:57:35;;;;;;;7.75;2.58;;;;;;;-7.29;100.00;103482.78;1590899;90;21503;-80
2022/12/04 03:00:06;;;;;;;8.20;2.30;;;;;;;-7.32;100.00;103486.41;1590505;90;22221;-78
2022/12/04 03:02:53;;;;;;;7.58;2.58;;;;;;;-7.42;100.00;103484.66;1590522;90;21639;-78
2022/12/04 03:05:24;;;;;;;8.45;2.35;;;;;;;-7.29;100.00;103488.89;1590714;90;21015;-79
2022/12/04 03:07:57;;;;;;;7.47;2.20;;;;;;;-7.35;100.00;103488.71;1590754;90;21162;-79
2022/12/04 03:10:26;;;;;;;;;;;;;;;-7.40;100.00;103489.38;1593325;90;21072;-80
2022/12/04 03:13:09;;;;;;;7.05;2.10;;;;;;;-7.41;100.00;103487.69;1590825;90;21976;-79
2022/12/04 03:15:58;;;;;;;7.90;2.25;;;;;;;-7.41;100.00;103490.73;1603045;89;21025;-79
2022/12/04 03:18:45;;;;;;;9.93;2.45;;;;;;;-7.39;100.00;103476.66;1603107;89;21043;-79
2022/12/04 03:21:19;;;;;;;6.55;2.20;;;;;;;-7.43;100.00;103483.44;1601949;89;21047;-79
2022/12/04 03:23:56;;;;;;;7.90;2.40;;;;;;;-7.38;100.00;103486.23;1582190;89;21038;-79
2022/12/04 03:26:30;;;;;;;7.37;2.65;;;;;;;-7.44;100.00;103494.81;1600810;89;21328;-79
2022/12/04 03:29:01;;;;;;;8.83;2.35;;;;;;;-7.44;100.00;103493.07;1618424;88;21070;-79
2022/12/04 03:31:35;;;;;;;8.88;2.35;;;;;;;-7.43;100.00;103488.20;1623086;88;21554;-78
2022/12/04 03:34:05;;;;;;;8.43;1.92;;;;;;;-7.40;100.00;103505.55;1559506;91;21049;-78
2022/12/04 03:36:36;;;;;;;5.60;2.62;;;;;;;-7.43;100.00;103497.84;1565390;91;21038;-79
2022/12/04 03:39:14;;;;;;;6.97;2.55;;;;;;;-7.48;100.00;103495.42;1478885;96;21256;-78
2022/12/04 03:41:57;;;;;;;7.75;2.15;;;;;;;-7.50;100.00;103491.17;1465019;98;21244;-78
2022/12/04 03:45:02;;;;;;;7.80;2.65;;;;;;;-7.44;100.00;103498.73;1495954;94;21136;-79
2022/12/04 03:47:42;;;;;;;6.28;1.82;;;;;;;-7.48;100.00;103495.88;1486637;96;21070;-78
2022/12/04 03:50:16;;;;;;;4.05;1.72;;;;;;;-7.53;100.00;103511.79;1493705;96;21069;-78
2022/12/04 03:52:47;;;;;;;8.25;2.45;;;;;;;-7.50;100.00;103499.02;1485666;96;21178;-79
2022/12/04 03:55:26;;;;;;;4.70;2.10;;;;;;;-7.52;100.00;103500.41;1472570;97;21148;-79
2022/12/04 03:57:57;;;;;;;4.70;1.90;;;;;;;-7.50;100.00;103499.02;1472029;97;21139;-79
2022/12/04 04:00:24;;;;;;;7.90;1.82;;;;;;;-7.55;100.00;103497.94;1472087;97;21141;-79
2022/12/04 04:03:00;;;;;;;4.67;1.77;;;;;;;-7.57;100.00;103500.61;1474637;97;21123;-79
2022/12/04 04:05:28;;;;;;;4.97;2.00;;;;;;;-7.65;100.00;103502.72;1474713;97;21379;-79
2022/12/04 04:08:24;;;;;;;7.20;2.08;;;;;;;-7.59;100.00;103498.98;1474759;97;21069;-78
2022/12/04 04:10:28;;;;;;;6.80;2.00;;;;;;;-7.59;100.00;103508.14;1474312;97;21116;-79
2022/12/04 04:24:14;;;;;;;6.25;1.85;;;;;;;-7.72;100.00;103513.55;1474405;97;21073;-79
2022/12/04 04:26:46;;;;;;;7.67;2.45;;;;;;;-7.60;100.00;103517.77;1469330;97;21090;-78
2022/12/04 04:29:13;;;;;;;10.28;2.20;;;;;;;-7.66;100.00;103519.82;1474642;97;21077;-79
2022/12/04 04:32:03;;;;;;;11.45;2.62;;;;;;;-7.73;100.00;103524.91;1459681;97;21964;-78
2022/12/04 04:34:47;;;;;;;6.37;2.00;;;;;;;-7.71;100.00;103530.48;1486595;94;21594;-78
2022/12/04 04:37:31;;;;;;;4.90;1.80;;;;;;;-7.78;100.00;103525.98;1580752;90;21085;-78
2022/12/04 04:40:17;;;;;;;5.87;2.33;;;;;;;-7.80;100.00;103530.42;1601330;89;21011;-79
2022/12/04 04:43:01;;;;;;;5.70;2.33;;;;;;;-7.77;100.00;103538.60;1608829;89;21031;-79
2022/12/04 04:45:32;;;;;;;5.20;1.75;;;;;;;-7.74;100.00;103538.93;1577825;89;21177;-79
2022/12/04 04:48:13;;;;;;;8.23;1.95;;;;;;;-7.77;100.00;103536.83;1578462;90;21150;-78
2022/12/04 04:50:40;;;;;;;7.30;2.10;;;;;;;-7.84;100.00;103541.11;1580836;90;21119;-78
2022/12/04 04:55:40;;;;;;;8.38;1.90;;;;;;;-7.72;100.00;103546.27;1559054;91;21525;-78
2022/12/04 04:58:14;;;;;;;6.90;1.92;;;;;;;-7.79;100.00;103541.77;1559182;91;21227;-78
2022/12/04 05:01:01;;;;;;;6.67;2.20;;;;;;;-7.81;100.00;103549.67;1527479;93;21062;-78
2022/12/04 05:03:28;;;;;;;6.08;2.05;;;;;;;-7.89;100.00;103550.45;1527524;93;21229;-78
2022/12/04 05:05:54;;;;;;;5.75;2.30;;;;;;;-7.84;100.00;103538.03;1527425;93;21106;-78
2022/12/04 05:08:21;;;;;;;5.25;2.22;;;;;;;-7.74;100.00;103545.47;1527545;93;21066;-78
2022/12/04 05:10:47;;;;;;;8.38;3.40;;;;;;;-7.79;100.00;103541.30;1524164;93;21180;-78
2022/12/04 05:13:14;;;;;;;18.17;6.15;;;;;;;-7.86;100.00;103551.63;1480698;96;21104;-78
2022/12/04 05:15:40;;;;;;;6.08;2.25;;;;;;;-7.76;100.00;103544.25;1481618;96;21557;-78
2022/12/04 05:18:07;;;;;;;4.87;1.70;;;;;;;-7.80;100.00;103555.28;1481823;96;21124;-78
2022/12/04 05:20:33;;;;;;;9.48;3.10;;;;;;;-7.69;100.00;103535.20;1481347;96;21620;-79
2022/12/04 05:22:59;;;;;;;7.70;2.72;;;;;;;-7.77;100.00;103545.99;1554529;89;21121;-78
2022/12/04 05:25:25;;;;;;;6.95;2.27;;;;;;;-7.80;100.00;103554.44;1601905;89;26707;-79
2022/12/04 05:27:51;;;;;;;5.45;1.87;;;;;;;-7.74;100.00;103552.02;1601804;89;20878;-78
2022/12/04 05:30:17;;;;;;;6.53;1.90;;;;;;;-7.81;100.00;103561.91;1543644;93;20962;-78
2022/12/04 05:32:43;;;;;;;5.47;1.87;;;;;;;-7.79;100.00;103557.01;1544012;93;21738;-78
2022/12/04 05:35:09;;;;;;;6.55;1.85;;;;;;;-7.71;100.00;103559.27;1543829;93;21160;-80
2022/12/04 05:37:39;;;;;;;11.15;2.60;;;;;;;-7.67;100.00;103562.17;1566644;88;27399;-78
2022/12/04 05:40:07;;;;;;;4.65;1.82;;;;;;;-7.55;100.00;103566.02;1625877;88;21044;-78
2022/12/04 05:42:33;;;;;;;4.90;1.82;;;;;;;-7.58;100.00;103568.30;1626060;88;21607;-78
2022/12/04 05:44:59;;;;;;;5.22;1.98;;;;;;;-7.45;100.00;103568.60;1625542;87;21173;-78
2022/12/04 05:47:25;;;;;;;7.10;1.80;;;;;;;-7.36;100.00;103569.50;1626317;88;21182;-78
2022/12/04 05:49:51;;;;;;;6.05;1.92;;;;;;;-7.42;100.00;103565.84;1626094;88;21016;-78
2022/12/04 05:52:17;;;;;;;7.83;1.90;;;;;;;-7.20;100.00;103578.00;1654902;84;21662;-78
2022/12/04 05:54:43;;;;;;;8.28;1.95;;;;;;;-7.00;100.00;103569.20;1703852;84;20841;-79
2022/12/04 05:57:09;;;;;;;9.20;2.62;;;;;;;-6.25;100.00;103576.95;1703888;84;21661;-79
2022/12/04 05:59:35;;;;;;;6.33;2.05;;;;;;;-5.77;100.00;103570.59;1703565;84;21176;-79
2022/12/04 06:02:01;;;;;;;13.85;2.98;;;;;;;-5.15;100.00;103564.26;1734409;82;21044;-80
2022/12/04 06:04:27;;;;;;;6.20;2.80;;;;;;;-4.95;100.00;103567.12;1743903;81;21072;-79
2022/12/04 06:06:54;;;;;;;4.25;2.00;;;;;;;-4.03;100.00;103584.27;1743605;81;21022;-80
2022/12/04 06:09:20;;;;;;;5.47;2.12;;;;;;;-2.78;100.00;103580.54;1743598;81;21043;-80
2022/12/04 06:11:46;;;;;;;8.23;2.72;;;;;;;-2.32;100.00;103582.85;1743347;81;21048;-81
2022/12/04 06:14:15;;;;;;;5.97;2.22;;;;;;;-1.61;100.00;103583.39;1743350;81;20896;-80
2022/12/04 06:16:44;;;;;;;8.23;2.30;;;;;;;-0.92;93.92;103578.53;1743706;81;20992;-81
2022/12/04 06:19:15;;;;;;;8.65;2.45;;;;;;;0.15;81.44;103579.89;1743701;81;21011;-81
2022/12/04 06:21:44;;;;;;;10.45;1.92;;;;;;;0.40;70.42;103586.79;1693507;84;21066;-81
2022/12/04 06:24:17;;;;;;;5.90;1.98;;;;;;;0.68;72.50;103582.85;1669111;84;22105;-81
2022/12/04 06:26:44;;;;;;;8.65;2.60;;;;;;;1.23;65.52;103582.91;1692882;84;21693;-82
2022/12/04 06:29:11;;;;;;;7.70;3.35;;;;;;;1.56;61.79;103587.80;1693745;84;21089;-82
2022/12/04 06:31:38;;;;;;;9.23;3.67;;;;;;;1.66;59.91;103583.39;1693678;84;21098;-81
2022/12/04 06:34:07;;;;;;;8.13;3.00;;;;;;;1.81;58.55;103577.28;1693247;84;21577;-81
2022/12/04 06:36:34;;;;;;;4.58;2.22;;;;;;;1.62;56.44;103593.94;1692849;83;21221;-81
2022/12/04 06:39:00;;;;;;;9.03;2.50;;;;;;;2.11;55.48;103594.30;1692577;84;21018;-81
2022/12/04 06:41:28;;;;;;;8.15;2.62;;;;;;;2.31;52.88;103586.80;1693724;84;21041;-81
2022/12/04 06:43:55;;;;;;;8.48;2.90;;;;;;;2.13;52.03;103593.20;1693482;84;21003;-80
2022/12/04 06:46:25;;;;;;;5.05;2.17;;;;;;;2.45;51.40;103591.80;1682119;83;21007;-81
2022/12/04 06:48:54;;;;;;;7.80;2.90;;;;;;;2.54;53.74;103589.33;1678722;85;21006;-81
2022/12/04 06:51:27;;;;;;;9.15;3.25;;;;;;;3.14;50.22;103589.75;1678590;85;21101;-81
2022/12/04 06:53:54;;;;;;;14.47;3.02;;;;;;;3.22;50.66;103586.91;1678828;85;21089;-81
2022/12/04 06:56:24;;;;;;;6.85;3.40;;;;;;;4.00;49.20;103592.66;1679009;85;20991;-81
2022/12/04 06:58:55;;;;;;;7.08;2.92;;;;;;;3.67;48.46;103590.40;1678682;85;21098;-82
2022/12/04 07:01:25;;;;;;;13.65;3.12;;;;;;;3.33;49.97;103584.13;1678692;84;21158;-82
2022/12/04 07:03:52;;;;;;;9.80;3.02;;;;;;;3.96;47.26;103585.06;1678682;85;21507;-81
2022/12/04 07:06:23;;;;;;;14.13;3.08;;;;;;;3.86;45.46;103585.08;1679036;85;21046;-81
2022/12/04 07:09:06;;;;;;;6.05;2.65;;;;;;;3.77;45.98;103591.26;1678969;85;21042;-82
2022/12/04 07:11:33;;;;;;;12.30;2.80;;;;;;;4.08;45.75;103591.42;1670373;85;21569;-81
2022/12/04 07:13:59;;;;;;;10.08;2.85;;;;;;;4.37;45.83;103581.69;1670060;85;22110;-81
2022/12/04 07:16:26;;;;;;;8.60;2.92;;;;;;;4.42;45.22;103589.62;1669880;85;21596;-81
2022/12/04 07:18:53;;;;;;;6.40;2.33;;;;;;;4.38;44.46;103584.70;1675441;85;21094;-80
2022/12/04 07:21:24;;;;;;;11.22;2.85;;;;;;;4.36;42.39;103584.86;1654213;86;21007;-80
2022/12/04 07:23:53;;;;;;;10.45;4.03;;;;;;;4.24;42.79;103596.70;1638953;87;21076;-81
2022/12/04 07:26:20;;;;;;;9.23;3.37;;;;;;;4.10;42.44;103585.96;1639418;87;21101;-81
2022/12/04 07:28:47;;;;;;;9.70;2.90;;;;;;;4.44;42.06;103578.78;1639118;87;21447;-81
2022/12/04 07:31:16;;;;;;;9.18;2.27;;;;;;;4.38;41.64;103589.55;1639060;87;21053;-81
2022/12/04 07:33:43;;;;;;;12.68;2.80;;;;;;;4.37;40.52;103578.52;1639287;87;21598;-80
2022/12/04 07:36:14;;;;;;;17.75;2.65;;;;;;;4.69;40.72;103579.97;1639167;87;20990;-81
2022/12/04 07:38:41;;;;;;;10.30;2.92;;;;;;;4.69;40.15;103583.48;1639208;87;21133;-81
2022/12/04 07:41:10;;;;;;;8.65;2.90;;;;;;;4.41;41.29;103576.40;1639106;87;21035;-81
2022/12/04 07:43:36;;;;;;;6.80;2.55;;;;;;;4.34;41.95;103592.16;1638837;87;21557;-80
2022/12/04 07:46:09;;;;;;;7.75;2.70;;;;;;;4.93;41.38;103597.64;1646599;86;21193;-81
2022/12/04 07:48:35;;;;;;;14.60;2.72;;;;;;;5.29;40.92;103602.23;1653764;86;20975;-81
2022/12/04 07:51:08;;;;;;;12.13;2.70;;;;;;;5.63;39.65;103599.77;1653971;86;21368;-81
2022/12/04 07:53:34;;;;;;;7.83;3.12;;;;;;;5.75;38.92;103587.83;1653867;86;21451;-81
2022/12/04 07:56:01;;;;;;;9.58;2.90;;;;;;;5.98;38.53;103578.03;1653556;86;21026;-81
2022/12/04 07:58:28;;;;;;;18.77;3.80;;;;;;;5.61;39.94;103587.03;1653545;86;21113;-81
2022/12/04 08:00:54;;;;;;;7.67;2.70;;;;;;;5.81;40.07;103593.07;1653782;86;21114;-81
2022/12/04 08:03:20;;;;;;;22.70;3.45;;;;;;;6.23;38.22;103587.06;1653898;86;21113;-81
2022/12/04 08:05:46;;;;;;;13.60;3.22;;;;;;;6.31;38.98;103589.80;1653827;86;20975;-80
2022/12/04 08:08:12;;;;;;;17.10;2.87;;;;;;;6.23;38.33;103592.42;1667396;86;21122;-80
2022/12/04 08:10:41;;;;;;;10.68;2.70;;;;;;;5.98;38.74;103589.57;1668898;86;21077;-80
2022/12/04 08:13:07;;;;;;;12.85;2.47;;;;;;;5.89;37.56;103595.83;1669159;86;21125;-80
2022/12/04 08:15:34;;;;;;;20.10;3.00;;;;;;;5.97;37.05;103589.70;1669113;86;21905;-80
2022/12/04 08:18:00;;;;;;;12.73;2.60;;;;;;;3.19;38.18;103604.84;1668774;86;21061;-80
2022/12/04 08:20:26;;;;;;;17.50;2.50;;;;;;;1.86;39.02;103605.67;1701255;81;21594;-80
2022/12/04 08:22:52;;;;;;;11.75;2.60;;;;;;;0.04;40.74;103612.99;1751884;81;20899;-78
2022/12/04 08:25:18;;;;;;;18.77;2.87;;;;;;;-0.62;41.59;103614.34;1751792;81;21680;-78
2022/12/04 08:27:45;;;;;;;12.18;2.70;;;;;;;-1.57;43.53;103622.36;1751735;81;21085;-79
2022/12/04 08:30:13;;;;;;;13.98;3.22;;;;;;;-2.36;44.68;103610.39;1724485;82;21046;-78
2022/12/04 08:32:39;;;;;;;12.68;2.95;;;;;;;-2.87;46.17;103623.82;1746514;81;20990;-78
2022/12/04 08:35:05;;;;;;;13.68;4.08;;;;;;;-2.93;46.63;103614.50;1752024;81;20999;-78
2022/12/04 08:37:31;;;;;;;13.15;2.85;;;;;;;-3.48;47.97;103613.45;1752036;81;20998;-77
2022/12/04 08:39:57;;;;;;;14.78;2.92;;;;;;;-3.60;48.43;103619.47;1751574;81;21972;-77
2022/12/04 08:42:23;;;;;;;10.40;2.42;;;;;;;-3.82;49.14;103601.91;1751842;81;20939;-78
2022/12/04 08:44:49;;;;;;;12.98;2.50;;;;;;;-3.96;49.83;103602.27;1751912;81;21791;-78
2022/12/04 08:47:16;;;;;;;16.93;2.70;;;;;;;-3.96;50.51;103595.68;1743199;81;21446;-78
2022/12/04 08:49:42;;;;;;;15.83;2.85;;;;;;;-4.01;50.63;103602.15;1743669;81;21430;-78
2022/12/04 08:52:08;;;;;;;8.75;2.52;;;;;;;-4.16;51.55;103596.83;1743777;81;21163;-77
2022/12/04 08:54:34;;;;;;;22.25;5.03;;;;;;;-4.13;51.88;103603.23;1743293;81;21992;-77
2022/12/04 08:57:00;;;;;;;8.60;2.52;;;;;;;-4.34;52.53;103590.84;1743792;81;22157;-78
2022/12/04 08:59:27;;;;;;;11.60;3.35;;;;;;;-4.29;52.75;103584.02;1744052;81;20873;-78
2022/12/04 09:01:53;;;;;;;11.05;2.67;;;;;;;-4.35;53.43;103575.16;1743821;82;20996;-77
2022/12/04 09:04:19;;;;;;;11.40;3.00;;;;;;;-4.45;54.18;103577.91;1743760;81;21157;-78
2022/12/04 09:06:45;;;;;;;10.40;3.10;;;;;;;-4.37;54.32;103578.33;1741868;82;21709;-77
2022/12/04 09:09:11;;;;;;;11.15;3.12;;;;;;;-4.29;54.38;103577.88;1743654;81;20940;-78
2022/12/04 09:11:38;;;;;;;12.35;3.40;;;;;;;-4.24;54.82;103563.52;1743478;82;21016;-78
2022/12/04 09:14:04;;;;;;;8.93;2.75;;;;;;;-4.24;54.44;103558.72;1743714;82;21044;-78
2022/12/04 09:16:30;;;;;;;11.65;3.35;;;;;;;-4.10;54.58;103571.94;1743808;82;22035;-79
2022/12/04 09:18:57;;;;;;;8.78;3.12;;;;;;;-4.15;54.83;103554.23;1743631;81;20985;-78
2022/12/04 09:21:24;;;;;;;5.87;2.45;;;;;;;-4.24;55.25;103553.45;1743688;81;20992;-79
2022/12/04 09:23:50;;;;;;;7.60;2.60;;;;;;;-4.24;55.83;103554.77;1743719;82;21020;-78
2022/12/04 09:26:27;;;;;;;13.70;3.00;;;;;;;-4.14;55.54;103550.20;1743730;82;21429;-78
2022/12/04 09:28:55;;;;;;;9.23;2.50;;;;;;;-4.11;55.75;103542.60;1743666;81;21137;-77
2022/12/04 09:31:23;;;;;;;9.18;2.92;;;;;;;-4.20;56.03;103560.26;1743882;82;20937;-78
2022/12/04 09:33:49;;;;;;;11.35;2.27;;;;;;;-4.18;56.11;103538.14;1743668;81;21036;-79
2022/12/04 09:36:16;;;;;;;9.80;2.40;;;;;;;-4.05;56.14;103529.55;1743573;81;21079;-78
2022/12/04 09:38:44;;;;;;;5.58;2.12;;;;;;;-4.06;55.93;103543.62;1743799;81;21028;-78
2022/12/04 09:41:28;;;;;;;8.15;2.67;;;;;;;-3.99;55.75;103540.55;1743690;81;21909;-78
2022/12/04 09:44:19;;;;;;;7.95;2.35;;;;;;;-4.03;55.92;103539.50;1704536;84;21003;-78
2022/12/04 09:47:01;;;;;;;7.47;2.70;;;;;;;-4.14;55.68;103536.20;1616494;87;21171;-79
2022/12/04 09:49:47;;;;;;;8.18;2.60;;;;;;;-4.19;56.51;103535.14;1623440;87;21016;-79
2022/12/04 09:52:47;;;;;;;6.87;3.00;;;;;;;-4.13;56.41;103533.45;1589571;90;21187;-79
2022/12/04 09:55:37;;;;;;;10.35;2.35;;;;;;;-4.13;56.26;103538.73;1515382;94;21822;-80
2022/12/04 09:58:06;;;;;;;13.53;3.02;;;;;;;-4.08;56.15;103517.41;1515077;94;21054;-80
2022/12/04 10:00:36;;;;;;;8.90;2.72;;;;;;;-3.94;55.94;103528.41;1515261;94;21078;-80
2022/12/04 10:03:13;;;;;;;6.58;2.22;;;;;;;-4.02;55.67;103524.94;1512689;94;21168;-80
2022/12/04 10:06:15;;;;;;;6.33;2.65;;;;;;;-3.99;55.49;103529.17;1515168;94;21114;-80
2022/12/04 10:08:45;;;;;;;9.05;2.25;;;;;;;-4.05;55.80;103526.44;1515249;94;21100;-80
2022/12/04 10:11:19;;;;;;;8.18;2.62;;;;;;;-3.99;55.45;103514.69;1515058;94;21089;-80
2022/12/04 10:14:23;;;;;;;7.08;1.90;;;;;;;-3.97;55.74;103514.11;1514741;94;22383;-80
2022/12/04 10:17:20;;;;;;;10.00;3.90;;;;;;;-3.91;55.86;103515.93;1515633;94;27082;-80
2022/12/04 10:20:15;;;;;;;8.78;2.90;;;;;;;-3.84;55.39;103521.66;1515238;94;21578;-79
2022/12/04 10:23:25;;;;;;;11.08;2.70;;;;;;;-3.86;55.57;103522.22;1538282;93;21792;-78
2022/12/04 10:25:54;;;;;;;7.80;2.83;;;;;;;-3.73;55.69;103510.48;1539459;93;21156;-78
2022/12/04 10:28:39;;;;;;;9.33;2.35;;;;;;;-3.70;54.95;103509.83;1539405;93;21641;-79
2022/12/04 10:31:11;;;;;;;10.25;2.50;;;;;;;-3.64;54.77;103499.86;1539412;93;21211;-80
2022/12/04 10:33:42;;;;;;;13.98;2.67;;;;;;;-3.77;54.93;103495.31;1484278;96;21084;-80
2022/12/04 10:36:19;;;;;;;9.88;2.85;;;;;;;-3.62;54.56;103501.91;1489350;95;21209;-80
2022/12/04 10:38:56;;;;;;;9.73;2.37;;;;;;;-3.64;54.67;103503.81;1486516;96;21317;-80
2022/12/04 10:41:48;;;;;;;13.58;3.05;;;;;;;-3.61;54.37;103503.63;1486908;96;21195;-79
2022/12/04 10:44:18;;;;;;;17.07;3.83;;;;;;;-3.74;54.78;103508.30;1551153;92;21665;-80
2022/12/04 10:46:44;;;;;;;25.37;5.30;;;;;;;-3.61;54.91;103497.87;1556033;91;21085;-80
2022/12/04 10:49:26;;;;;;;15.03;3.80;;;;;;;-3.70;54.78;103497.13;1545175;92;21283;-80
2022/12/04 10:51:54;;;;;;;10.08;2.80;;;;;;;-3.61;54.44;103498.34;1595226;87;21222;-80
2022/12/04 10:54:34;;;;;;;13.45;4.12;;;;;;;-3.67;54.69;103499.09;1613952;87;20998;-80
2022/12/04 10:57:08;;;;;;;8.20;2.35;;;;;;;-3.63;54.62;103500.22;1604325;89;21054;-80
2022/12/04 10:59:49;;;;;;;10.23;2.40;;;;;;;-3.52;54.24;103492.03;1595539;89;21099;-80
2022/12/04 11:02:31;;;;;;;10.23;2.60;;;;;;;-3.59;54.75;103491.17;1595899;89;21655;-80
2022/12/04 11:05:11;;;;;;;6.90;2.70;;;;;;;-3.50;54.65;103487.96;1596300;89;21138;-80
2022/12/04 11:07:47;;;;;;;12.85;3.17;;;;;;;-3.53;54.91;103478.48;1593066;89;21170;-80
2022/12/04 11:10:37;;;;;;;10.70;2.50;;;;;;;-3.49;54.80;103487.04;1595875;89;21098;-80
2022/12/04 11:13:14;;;;;;;10.88;2.45;;;;;;;-3.51;54.79;103475.73;1595859;89;21059;-80
2022/12/04 11:15:47;;;;;;;9.70;3.40;;;;;;;-3.51;54.71;103481.85;1595776;89;21166;-80
2022/12/04 11:18:30;;;;;;;15.30;3.10;;;;;;;-3.38;54.43;103478.44;1569647;91;21037;-80
2022/12/04 11:21:04;;;;;;;10.05;3.20;;;;;;;-3.47;54.39;103479.41;1544727;92;21600;-80
2022/12/04 11:23:44;;;;;;;10.93;2.70;;;;;;;-3.54;54.54;103477.25;1512594;94;21074;-80
2022/12/04 11:26:11;;;;;;;5.47;2.40;;;;;;;-3.50;54.27;103475.66;1472631;97;21118;-80
2022/12/04 11:28:41;;;;;;;14.83;3.42;;;;;;;-3.52;54.17;103485.91;1474057;97;21281;-80
2022/12/04 11:31:11;;;;;;;13.13;3.30;;;;;;;-3.53;54.16;103467.94;1507885;94;21118;-80
2022/12/04 11:33:55;;;;;;;15.50;3.30;;;;;;;-3.50;54.54;103464.24;1518420;94;21145;-81
2022/12/04 11:36:28;;;;;;;12.37;4.47;;;;;;;-3.45;54.08;103471.40;1453097;98;21049;-80
2022/12/04 11:39:15;;;;;;;19.50;3.60;;;;;;;-3.57;54.49;103495.89;1452993;98;21138;-81
2022/12/04 11:41:41;;;;;;;8.50;2.77;;;;;;;-3.55;54.64;103482.16;1453002;98;21150;-80
2022/12/04 11:44:27;;;;;;;6.85;2.58;;;;;;;-3.51;54.08;103475.73;1453181;98;21155;-80
2022/12/04 11:46:56;;;;;;;10.38;2.90;;;;;;;-3.51;54.40;103479.69;1389491;101;21152;-81
2022/12/04 11:49:25;;;;;;;8.18;2.95;;;;;;;-3.53;54.29;103473.66;1389501;101;21172;-80
2022/12/04 11:52:05;;;;;;;13.03;3.67;;;;;;;-3.47;54.25;103474.59;1405938;101;21178;-80
2022/12/04 11:55:01;;;;;;;8.20;2.33;;;;;;;-3.58;54.10;103466.53;1391597;101;22243;-80